createdAt,value
2023-04-05T00:01:13.791Z,95.94
2023-04-05T00:03:42.801Z,95.67
2023-04-05T00:06:13.402Z,95.94
2023-04-05T00:08:41.861Z,97.15
2023-04-05T00:11:09.939Z,97.19
2023-04-05T00:13:39.342Z,97.37
2023-04-05T00:16:08.514Z,97.08
2023-04-05T00:18:38.379Z,97.31
2023-04-05T00:21:06.941Z,97.42
2023-04-05T00:23:38.576Z,97.34
2023-04-05T00:26:06.946Z,98.03
2023-04-05T00:28:35.762Z,98.20
2023-04-05T00:31:06.387Z,98.22
2023-04-05T00:33:34.492Z,98.48
2023-04-05T00:36:12.789Z,97.85
2023-04-05T00:38:41.209Z,98.06
2023-04-05T00:41:09.302Z,97.69
2023-04-05T00:43:37.863Z,97.98
2023-04-05T00:46:07.613Z,98.20
2023-04-05T00:48:35.773Z,97.85
2023-04-05T00:51:03.891Z,97.81
2023-04-05T00:53:32.221Z,98.11
2023-04-05T00:56:01.403Z,97.93
2023-04-05T00:58:29.464Z,97.92
2023-04-05T01:01:02.728Z,97.99
2023-04-05T01:03:34.532Z,98.64
2023-04-05T01:06:09.917Z,98.66
2023-04-05T01:08:41.807Z,98.59
2023-04-05T01:11:10.481Z,98.40
2023-04-05T01:13:38.587Z,98.25
2023-04-05T01:16:07.059Z,97.78
2023-04-05T01:18:38.020Z,98.17
2023-04-05T01:21:20.987Z,98.65
2023-04-05T01:23:55.182Z,98.27
2023-04-05T01:26:34.971Z,97.97
2023-04-05T01:29:39.293Z,98.17
2023-04-05T01:32:13.184Z,98.29
2023-04-05T01:34:45.232Z,98.71
2023-04-05T01:37:14.179Z,99.29
2023-04-05T01:39:42.672Z,99.12
2023-04-05T01:42:11.300Z,99.06
2023-04-05T01:44:41.644Z,99.02
2023-04-05T01:47:11.109Z,98.96
2023-04-05T01:49:39.338Z,98.84
2023-04-05T01:52:08.850Z,99.41
2023-04-05T01:54:37.072Z,99.33
2023-04-05T01:57:05.710Z,99.62
2023-04-05T01:59:33.797Z,99.09
2023-04-05T02:02:01.954Z,99.04
2023-04-05T02:04:31.400Z,99.60
2023-04-05T02:07:00.648Z,99.49
2023-04-05T02:09:28.698Z,99.84
2023-04-05T02:11:57.378Z,99.58
2023-04-05T02:14:25.933Z,99.83
2023-04-05T02:16:55.852Z,99.64
2023-04-05T02:19:26.553Z,99.45
2023-04-05T02:21:56.488Z,99.80
2023-04-05T02:24:24.618Z,99.53
2023-04-05T02:26:52.737Z,99.83
2023-04-05T02:29:20.854Z,100.00
2023-04-05T02:31:50.548Z,100.00
2023-04-05T02:34:19.040Z,100.00
2023-04-05T02:36:47.371Z,99.67
2023-04-05T02:39:16.906Z,99.88
2023-04-05T02:41:45.073Z,99.90
2023-04-05T02:44:13.669Z,99.99
2023-04-05T02:46:42.174Z,100.00
2023-04-05T02:49:10.901Z,100.00
2023-04-05T02:51:39.470Z,100.00
2023-04-05T02:54:11.008Z,100.00
2023-04-05T02:56:42.926Z,100.00
2023-04-05T02:59:15.801Z,100.00
2023-04-05T03:01:45.683Z,100.00
2023-04-05T03:04:23.069Z,100.00
2023-04-05T03:06:52.286Z,100.00
2023-04-05T03:09:22.496Z,100.00
2023-04-05T03:11:56.441Z,100.00
2023-04-05T03:14:24.848Z,100.00
2023-04-05T03:16:54.031Z,100.00
2023-04-05T03:19:37.696Z,100.00
2023-04-05T03:22:15.060Z,100.00
2023-04-05T03:24:43.710Z,100.00
2023-04-05T03:27:16.179Z,100.00
2023-04-05T03:29:58.537Z,100.00
2023-04-05T03:32:26.974Z,100.00
2023-04-05T03:35:06.353Z,100.00
2023-04-05T03:37:36.070Z,100.00
2023-04-05T03:40:10.637Z,100.00
2023-04-05T03:42:40.166Z,100.00
2023-04-05T03:45:09.540Z,100.00
2023-04-05T03:47:37.718Z,100.00
2023-04-05T03:50:09.427Z,100.00
2023-04-05T03:52:37.443Z,100.00
2023-04-05T03:55:07.314Z,100.00
2023-04-05T03:57:38.303Z,100.00
2023-04-05T04:00:20.931Z,100.00
2023-04-05T04:03:05.157Z,100.00
2023-04-05T04:05:39.349Z,100.00
2023-04-05T04:08:09.667Z,100.00
2023-04-05T04:10:39.195Z,100.00
2023-04-05T04:13:19.313Z,100.00
2023-04-05T04:15:55.132Z,100.00
2023-04-05T04:18:47.421Z,100.00
2023-04-05T04:21:51.089Z,100.00
2023-04-05T04:24:46.248Z,100.00
2023-04-05T04:27:46.902Z,100.00
2023-04-05T04:30:15.838Z,100.00
2023-04-05T04:33:09.501Z,100.00
2023-04-05T04:36:14.065Z,100.00
2023-04-05T04:39:20.111Z,100.00
2023-04-05T04:42:12.060Z,100.00
2023-04-05T04:45:03.179Z,100.00
2023-04-05T04:47:52.981Z,100.00
2023-04-05T04:50:39.319Z,100.00
2023-04-05T04:53:07.898Z,100.00
2023-04-05T04:55:36.215Z,100.00
2023-04-05T04:58:09.852Z,100.00
2023-04-05T05:00:39.944Z,100.00
2023-04-05T05:03:11.390Z,100.00
2023-04-05T05:05:44.807Z,100.00
2023-04-05T05:08:12.980Z,100.00
2023-04-05T05:10:42.734Z,100.00
2023-04-05T05:13:11.719Z,100.00
2023-04-05T05:15:40.974Z,100.00
2023-04-05T05:18:10.398Z,100.00
2023-04-05T05:20:38.696Z,100.00
2023-04-05T05:23:08.345Z,100.00
2023-04-05T05:25:38.400Z,100.00
2023-04-05T05:28:06.816Z,100.00
2023-04-05T05:30:34.908Z,100.00
2023-04-05T05:33:03.083Z,100.00
2023-04-05T05:35:31.130Z,100.00
2023-04-05T05:37:59.186Z,100.00
2023-04-05T05:40:28.662Z,100.00
2023-04-05T05:42:56.731Z,100.00
2023-04-05T05:45:25.336Z,100.00
2023-04-05T05:47:53.443Z,100.00
2023-04-05T05:50:21.789Z,100.00
2023-04-05T05:52:49.870Z,100.00
2023-04-05T05:55:18.027Z,100.00
2023-04-05T05:57:47.470Z,100.00
2023-04-05T06:00:16.997Z,100.00
2023-04-05T06:02:45.343Z,100.00
2023-04-05T06:05:13.517Z,100.00
2023-04-05T06:07:41.550Z,100.00
2023-04-05T06:10:10.242Z,100.00
2023-04-05T06:12:38.276Z,100.00
2023-04-05T06:15:09.738Z,100.00
2023-04-05T06:17:42.214Z,100.00
2023-04-05T06:20:11.629Z,100.00
2023-04-05T06:22:40.348Z,100.00
2023-04-05T06:25:09.447Z,100.00
2023-04-05T06:27:37.883Z,99.89
2023-04-05T06:30:06.824Z,99.64
2023-04-05T06:32:36.526Z,99.89
2023-04-05T06:35:05.079Z,98.58
2023-04-05T06:37:33.166Z,98.77
2023-04-05T06:40:01.239Z,98.20
2023-04-05T06:42:29.626Z,98.59
2023-04-05T06:45:04.326Z,95.83
2023-04-05T06:47:36.362Z,95.43
2023-04-05T06:50:04.537Z,94.97
2023-04-05T06:52:33.593Z,93.86
2023-04-05T06:55:02.321Z,90.59
2023-04-05T06:57:30.344Z,89.92
2023-04-05T06:59:58.634Z,89.34
2023-04-05T07:02:26.983Z,88.70
2023-04-05T07:05:03.807Z,85.64
2023-04-05T07:07:31.852Z,81.71
2023-04-05T07:10:00.533Z,84.17
2023-04-05T07:12:28.686Z,82.70
2023-04-05T07:14:56.787Z,80.30
2023-04-05T07:17:25.627Z,79.03
2023-04-05T07:19:53.745Z,77.68
2023-04-05T07:22:23.506Z,78.11
2023-04-05T07:24:53.047Z,73.38
2023-04-05T07:27:21.226Z,74.56
2023-04-05T07:29:49.529Z,72.69
2023-04-05T07:32:17.626Z,72.52
2023-04-05T07:34:45.874Z,69.98
2023-04-05T07:37:14.434Z,70.01
2023-04-05T07:39:43.861Z,71.07
2023-04-05T07:42:11.904Z,68.15
2023-04-05T07:44:39.940Z,67.67
2023-04-05T07:47:07.945Z,61.91
2023-04-05T07:49:37.967Z,62.81
2023-04-05T07:52:06.579Z,69.91
2023-04-05T07:54:34.965Z,64.91
2023-04-05T07:57:04.451Z,62.82
2023-04-05T07:59:32.702Z,63.46
2023-04-05T08:02:08.210Z,57.44
2023-04-05T08:04:42.164Z,59.95
2023-04-05T08:07:10.353Z,59.61
2023-04-05T08:09:38.388Z,60.79
2023-04-05T08:12:08.406Z,59.91
2023-04-05T08:14:37.035Z,56.80
2023-04-05T08:17:05.462Z,55.46
2023-04-05T08:19:33.538Z,59.34
2023-04-05T08:22:01.652Z,55.09
2023-04-05T08:24:29.741Z,56.60
2023-04-05T08:26:57.806Z,55.39
2023-04-05T08:29:27.553Z,56.50
2023-04-05T08:31:57.812Z,57.90
2023-04-05T08:34:25.947Z,56.92
2023-04-05T08:36:54.024Z,57.91
2023-04-05T08:39:22.255Z,53.96
2023-04-05T08:41:51.751Z,52.63
2023-04-05T08:44:20.244Z,54.02
2023-04-05T08:46:49.700Z,55.53
2023-04-05T08:49:17.710Z,51.58
2023-04-05T08:51:45.790Z,56.05
2023-04-05T08:54:14.475Z,53.10
2023-04-05T08:56:42.512Z,57.33
2023-04-05T08:59:11.934Z,53.17
2023-04-05T09:01:42.792Z,54.61
2023-04-05T09:04:15.537Z,52.57
2023-04-05T09:06:43.572Z,52.51
2023-04-05T09:09:11.648Z,53.36
2023-04-05T09:11:40.036Z,52.86
2023-04-05T09:14:08.335Z,54.58
2023-04-05T09:16:38.495Z,53.33
2023-04-05T09:19:06.642Z,51.90
2023-04-05T09:22:00.623Z,52.61
2023-04-05T09:24:33.500Z,52.22
2023-04-05T09:27:06.316Z,51.92
2023-04-05T09:29:34.420Z,52.81
2023-04-05T09:32:05.641Z,52.22
2023-04-05T09:34:34.053Z,52.36
2023-04-05T09:37:03.550Z,51.60
2023-04-05T09:39:32.641Z,50.97
2023-04-05T09:42:06.332Z,51.35
2023-04-05T09:44:50.054Z,51.44
2023-04-05T09:47:18.451Z,52.33
2023-04-05T09:49:46.566Z,52.02
2023-04-05T09:52:24.240Z,51.09
2023-04-05T09:54:53.140Z,51.05
2023-04-05T09:57:21.208Z,50.74
2023-04-05T09:59:49.266Z,49.31
2023-04-05T10:02:17.421Z,48.44
2023-04-05T10:04:46.660Z,49.80
2023-04-05T10:07:15.963Z,46.03
2023-04-05T10:09:46.235Z,50.52
2023-04-05T10:12:15.644Z,49.85
2023-04-05T10:14:43.769Z,50.45
2023-04-05T10:17:13.947Z,50.36
2023-04-05T10:20:03.430Z,47.53
2023-04-05T10:22:33.910Z,49.29
2023-04-05T10:25:06.670Z,47.04
2023-04-05T10:27:36.629Z,48.60
2023-04-05T10:30:06.440Z,46.07
2023-04-05T10:32:41.996Z,48.57
2023-04-05T10:35:11.369Z,46.19
2023-04-05T10:37:48.350Z,45.90
2023-04-05T10:40:17.843Z,47.42
2023-04-05T10:42:45.973Z,46.80
2023-04-05T10:45:15.674Z,48.97
2023-04-05T10:47:46.090Z,46.60
2023-04-05T10:50:21.596Z,48.89
2023-04-05T10:52:49.830Z,43.47
2023-04-05T10:55:20.016Z,44.23
2023-04-05T10:57:48.138Z,44.59
2023-04-05T11:00:17.013Z,45.27
2023-04-05T11:02:45.207Z,45.36
2023-04-05T11:05:31.332Z,47.85
2023-04-05T11:08:03.792Z,45.95
2023-04-05T11:10:33.589Z,42.80
2023-04-05T11:13:09.046Z,43.60
2023-04-05T11:15:37.261Z,43.75
2023-04-05T11:18:06.765Z,43.32
2023-04-05T11:20:45.320Z,46.02
2023-04-05T11:23:15.729Z,45.81
2023-04-05T11:25:49.946Z,45.25
2023-04-05T11:28:25.288Z,44.95
2023-04-05T11:30:56.602Z,45.86
2023-04-05T11:33:37.903Z,44.31
2023-04-05T11:36:06.312Z,44.38
2023-04-05T11:38:34.465Z,44.01
2023-04-05T11:41:17.574Z,43.02
2023-04-05T11:43:47.516Z,44.31
2023-04-05T11:46:16.212Z,45.61
2023-04-05T11:48:44.323Z,42.33
2023-04-05T11:51:12.430Z,44.69
2023-04-05T11:53:40.495Z,43.09
2023-04-05T11:56:12.887Z,41.62
2023-04-05T11:58:41.018Z,43.25
2023-04-05T12:01:09.242Z,41.91
2023-04-05T12:03:37.658Z,43.60
2023-04-05T12:06:06.583Z,42.45
2023-04-05T12:08:42.168Z,41.96
2023-04-05T12:11:12.293Z,43.96
2023-04-05T12:13:40.448Z,44.38
2023-04-05T12:16:09.747Z,44.21
2023-04-05T12:18:38.232Z,44.92
2023-04-05T12:21:08.030Z,43.71
2023-04-05T12:23:37.245Z,43.73
2023-04-05T12:26:07.444Z,42.43
2023-04-05T12:28:52.881Z,41.63
2023-04-05T12:31:39.112Z,44.66
2023-04-05T12:34:07.309Z,44.74
2023-04-05T12:36:35.622Z,44.26
2023-04-05T12:39:07.568Z,44.38
2023-04-05T12:41:36.710Z,43.67
2023-04-05T12:44:07.845Z,44.15
2023-04-05T12:46:42.742Z,43.58
2023-04-05T12:49:12.356Z,41.89
2023-04-05T12:51:43.306Z,43.48
2023-04-05T12:54:13.397Z,45.01
2023-04-05T12:56:41.579Z,44.37
2023-04-05T12:59:11.237Z,44.48
2023-04-05T13:01:39.838Z,45.68
2023-04-05T13:04:15.455Z,44.38
2023-04-05T13:06:47.581Z,45.15
2023-04-05T13:09:15.996Z,42.56
2023-04-05T13:11:44.106Z,44.03
2023-04-05T13:14:13.600Z,44.58
2023-04-05T13:16:42.177Z,43.39
2023-04-05T13:19:10.270Z,44.01
2023-04-05T13:21:38.277Z,43.85
2023-04-05T13:24:06.516Z,43.46
2023-04-05T13:26:34.559Z,44.65
2023-04-05T13:29:03.642Z,45.56
2023-04-05T13:31:33.931Z,44.82
2023-04-05T13:34:02.112Z,45.83
2023-04-05T13:36:30.191Z,45.28
2023-04-05T13:38:58.234Z,44.61
2023-04-05T13:41:26.489Z,45.08
2023-04-05T13:43:55.280Z,45.78
2023-04-05T13:46:23.404Z,45.99
2023-04-05T13:48:52.844Z,45.64
2023-04-05T13:51:20.931Z,45.47
2023-04-05T13:53:48.980Z,43.41
2023-04-05T13:56:17.163Z,45.34
2023-04-05T13:58:45.341Z,44.89
2023-04-05T14:01:13.764Z,44.03
2023-04-05T14:03:41.936Z,45.22
2023-04-05T14:06:11.703Z,44.36
2023-04-05T14:08:39.779Z,45.67
2023-04-05T14:11:08.291Z,44.07
2023-04-05T14:13:36.431Z,43.90
2023-04-05T14:16:04.648Z,44.56
2023-04-05T14:18:32.824Z,43.69
2023-04-05T14:21:01.017Z,44.90
2023-04-05T14:23:30.942Z,45.64
2023-04-05T14:25:59.170Z,44.83
2023-04-05T14:28:27.359Z,45.15
2023-04-05T14:30:55.688Z,44.19
2023-04-05T14:33:24.488Z,44.19
2023-04-05T14:35:54.089Z,43.49
2023-04-05T14:38:22.774Z,44.74
2023-04-05T14:40:52.353Z,42.88
2023-04-05T14:43:20.542Z,42.83
2023-04-05T14:45:48.846Z,43.12
2023-04-05T14:48:17.164Z,43.58
2023-04-05T14:50:45.435Z,43.32
2023-04-05T14:53:14.082Z,43.74
2023-04-05T14:55:42.212Z,44.75
2023-04-05T14:58:14.254Z,42.02
2023-04-05T15:00:42.981Z,43.16
2023-04-05T15:03:11.924Z,44.14
2023-04-05T15:05:40.198Z,43.95
2023-04-05T15:08:08.365Z,44.48
2023-04-05T15:10:36.541Z,44.93
2023-04-05T15:13:04.771Z,44.54
2023-04-05T15:15:34.359Z,44.51
2023-04-05T15:18:03.489Z,42.86
2023-04-05T15:20:32.225Z,43.99
2023-04-05T15:23:00.589Z,44.00
2023-04-05T15:25:28.801Z,45.13
2023-04-05T15:27:59.719Z,45.00
2023-04-05T15:30:29.939Z,45.88
2023-04-05T15:32:59.953Z,45.24
2023-04-05T15:35:28.305Z,47.00
2023-04-05T15:37:56.524Z,46.11
2023-04-05T15:40:24.747Z,45.37
2023-04-05T15:42:52.882Z,44.99
2023-04-05T15:45:21.479Z,45.08
2023-04-05T15:47:49.728Z,46.64
2023-04-05T15:50:20.482Z,47.65
2023-04-05T15:52:48.883Z,46.89
2023-04-05T15:55:16.985Z,46.78
2023-04-05T15:57:45.177Z,47.49
2023-04-05T16:00:14.591Z,47.96
2023-04-05T16:02:43.359Z,47.14
2023-04-05T16:05:11.693Z,49.01
2023-04-05T16:07:41.343Z,48.22
2023-04-05T16:10:10.986Z,48.80
2023-04-05T16:12:39.476Z,48.10
2023-04-05T16:15:08.534Z,48.77
2023-04-05T16:17:36.833Z,48.69
2023-04-05T16:20:05.503Z,48.75
2023-04-05T16:22:33.640Z,48.75
2023-04-05T16:25:03.668Z,47.87
2023-04-05T16:27:33.691Z,47.94
2023-04-05T16:30:01.868Z,47.91
2023-04-05T16:32:30.033Z,48.33
2023-04-05T16:34:58.194Z,48.26
2023-04-05T16:37:26.423Z,48.72
2023-04-05T16:39:55.056Z,47.37
2023-04-05T16:42:24.647Z,48.77
2023-04-05T16:44:52.805Z,48.92
2023-04-05T16:47:21.232Z,49.15
2023-04-05T16:49:49.368Z,48.22
2023-04-05T16:52:17.921Z,49.54
2023-04-05T16:54:46.079Z,50.06
2023-04-05T16:57:14.433Z,50.34
2023-04-05T16:59:44.191Z,50.46
2023-04-05T17:02:12.394Z,50.26
2023-04-05T17:04:40.507Z,50.22
2023-04-05T17:07:09.185Z,50.71
2023-04-05T17:09:37.323Z,50.77
2023-04-05T17:12:05.781Z,50.88
2023-04-05T17:14:33.950Z,50.28
2023-04-05T17:17:03.531Z,51.11
2023-04-05T17:19:32.218Z,51.77
2023-04-05T17:22:00.396Z,52.80
2023-04-05T17:24:29.328Z,54.27
2023-04-05T17:26:57.572Z,55.30
2023-04-05T17:29:25.936Z,55.68
2023-04-05T17:31:54.457Z,56.03
2023-04-05T17:34:24.001Z,57.11
2023-04-05T17:36:52.853Z,59.27
2023-04-05T17:39:21.044Z,58.80
2023-04-05T17:41:50.925Z,59.14
2023-04-05T17:44:19.924Z,58.95
2023-04-05T17:46:57.350Z,59.13
2023-04-05T17:49:36.512Z,59.95
2023-04-05T17:52:04.843Z,61.01
2023-04-05T17:54:37.084Z,61.78
2023-04-05T17:57:05.507Z,61.60
2023-04-05T17:59:34.239Z,61.85
2023-04-05T18:02:02.521Z,62.32
2023-04-05T18:04:30.902Z,63.18
2023-04-05T18:07:00.768Z,62.25
2023-04-05T18:09:29.148Z,63.30
2023-04-05T18:11:57.636Z,63.37
2023-04-05T18:14:26.348Z,63.66
2023-04-05T18:16:54.481Z,63.05
2023-04-05T18:19:22.710Z,64.26
2023-04-05T18:21:50.854Z,64.04
2023-04-05T18:24:20.696Z,64.04
2023-04-05T18:26:48.872Z,64.94
2023-04-05T18:29:17.105Z,64.80
2023-04-05T18:31:45.380Z,64.34
2023-04-05T18:34:13.563Z,65.54
2023-04-05T18:36:41.822Z,66.19
2023-04-05T18:39:10.055Z,66.73
2023-04-05T18:41:40.205Z,67.39
2023-04-05T18:44:09.819Z,66.59
2023-04-05T18:46:38.679Z,67.14
2023-04-05T18:49:07.025Z,66.41
2023-04-05T18:51:35.419Z,67.42
2023-04-05T18:54:04.034Z,67.19
2023-04-05T18:56:32.614Z,68.28
2023-04-05T18:59:02.270Z,68.87
2023-04-05T19:01:30.601Z,68.44
2023-04-05T19:04:00.487Z,67.92
2023-04-05T19:06:29.443Z,68.22
2023-04-05T19:08:57.570Z,68.97
2023-04-05T19:11:25.803Z,69.86
2023-04-05T19:13:54.539Z,70.02
2023-04-05T19:16:24.064Z,70.64
2023-04-05T19:18:52.875Z,69.84
2023-04-05T19:21:21.184Z,70.18
2023-04-05T19:23:49.951Z,69.87
2023-04-05T19:26:19.493Z,70.07
2023-04-05T19:28:48.849Z,69.25
2023-04-05T19:31:17.061Z,71.03
2023-04-05T19:33:46.684Z,71.26
2023-04-05T19:36:14.967Z,71.44
2023-04-05T19:38:43.440Z,72.00
2023-04-05T19:41:11.629Z,72.68
2023-04-05T19:43:41.170Z,73.88
2023-04-05T19:46:09.923Z,73.74
2023-04-05T19:48:39.308Z,74.43
2023-04-05T19:51:09.595Z,74.67
2023-04-05T19:53:42.633Z,74.66
2023-04-05T19:56:12.702Z,74.85
2023-04-05T19:58:40.980Z,75.74
2023-04-05T20:01:09.148Z,76.23
2023-04-05T20:03:38.127Z,76.57
2023-04-05T20:06:09.440Z,77.51
2023-04-05T20:08:38.744Z,77.59
2023-04-05T20:11:12.708Z,77.29
2023-04-05T20:13:43.887Z,77.73
2023-04-05T20:16:13.204Z,78.62
2023-04-05T20:18:42.389Z,78.95
2023-04-05T20:21:12.108Z,78.75
2023-04-05T20:23:40.438Z,79.23
2023-04-05T20:26:08.616Z,79.90
2023-04-05T20:28:38.822Z,79.17
2023-04-05T20:31:08.994Z,77.93
2023-04-05T20:33:48.352Z,78.89
2023-04-05T20:36:20.054Z,79.55
2023-04-05T20:38:48.527Z,79.87
2023-04-05T20:41:18.119Z,79.53
2023-04-05T20:43:46.439Z,79.91
2023-04-05T20:46:14.745Z,80.13
2023-04-05T20:48:43.072Z,80.95
2023-04-05T20:51:14.410Z,82.37
2023-04-05T20:53:44.144Z,82.12
2023-04-05T20:56:12.605Z,81.41
2023-04-05T20:58:41.520Z,82.31
2023-04-05T21:01:09.719Z,81.95
2023-04-05T21:03:39.370Z,81.74
2023-04-05T21:06:08.506Z,81.03
2023-04-05T21:08:37.174Z,80.92
2023-04-05T21:11:06.865Z,80.12
2023-04-05T21:13:35.797Z,79.37
2023-04-05T21:16:03.987Z,80.24
2023-04-05T21:18:32.224Z,82.48
2023-04-05T21:21:00.989Z,82.61
2023-04-05T21:23:30.114Z,83.29
2023-04-05T21:25:59.750Z,83.96
2023-04-05T21:28:29.290Z,84.37
2023-04-05T21:30:57.497Z,84.72
2023-04-05T21:33:26.097Z,85.00
2023-04-05T21:35:54.236Z,85.66
2023-04-05T21:38:22.473Z,85.60
2023-04-05T21:40:51.185Z,85.36
2023-04-05T21:43:19.339Z,85.50
2023-04-05T21:45:48.987Z,84.52
2023-04-05T21:48:17.177Z,84.58
2023-04-05T21:50:45.381Z,84.40
2023-04-05T21:53:14.721Z,84.33
2023-04-05T21:55:42.939Z,84.19
2023-04-05T21:58:11.113Z,83.75
2023-04-05T22:00:39.378Z,83.04
2023-04-05T22:03:08.982Z,83.66
2023-04-05T22:05:38.788Z,83.76
2023-04-05T22:08:08.686Z,84.27
2023-04-05T22:10:37.740Z,83.91
2023-04-05T22:13:06.029Z,84.59
2023-04-05T22:15:34.355Z,84.23
2023-04-05T22:18:02.998Z,82.76
2023-04-05T22:20:32.596Z,81.67
2023-04-05T22:23:01.233Z,82.14
2023-04-05T22:25:29.492Z,82.46
2023-04-05T22:28:00.151Z,81.54
2023-04-05T22:30:28.950Z,81.75
2023-04-05T22:32:57.379Z,81.52
2023-04-05T22:35:25.966Z,81.38
2023-04-05T22:37:55.653Z,81.49
2023-04-05T22:40:27.004Z,81.41
2023-04-05T22:42:55.266Z,80.14
2023-04-05T22:45:23.639Z,77.99
2023-04-05T22:47:52.243Z,78.23
2023-04-05T22:50:20.482Z,75.93
2023-04-05T22:52:48.603Z,76.75
2023-04-05T22:55:18.295Z,76.38
2023-04-05T22:57:46.580Z,76.82
2023-04-05T23:00:15.779Z,77.22
2023-04-05T23:02:44.076Z,76.64
2023-04-05T23:05:13.145Z,75.13
2023-04-05T23:07:41.395Z,76.04
2023-04-05T23:10:10.240Z,75.97
2023-04-05T23:12:39.811Z,76.67
2023-04-05T23:15:09.000Z,76.41
2023-04-05T23:17:37.624Z,77.03
2023-04-05T23:20:06.947Z,77.70
2023-04-05T23:22:36.094Z,77.57
2023-04-05T23:25:04.502Z,76.51
2023-04-05T23:27:32.662Z,76.87
2023-04-05T23:30:02.666Z,76.13
2023-04-05T23:32:30.984Z,75.69
2023-04-05T23:34:59.128Z,74.65
2023-04-05T23:37:27.326Z,74.91
2023-04-05T23:39:55.629Z,74.49
2023-04-05T23:42:23.751Z,73.66
2023-04-05T23:44:52.295Z,74.43
2023-04-05T23:47:21.868Z,73.57
2023-04-05T23:49:50.112Z,73.00
2023-04-05T23:52:18.294Z,72.46
2023-04-05T23:54:46.489Z,72.75
2023-04-05T23:57:15.122Z,72.26
2023-04-05T23:59:43.391Z,72.36
